Flight Track Log - Related Links

Times and Time Zones

All times are in EDT time to prevent confusion due to time zone crossing. See the ASQ5745 flight status page for this flight to view local times or setup timezone preferences in your user account.

Time Position Orientation Groundspeed Altitude Reporting Facility
EDT Latitude Longitude Course Direction KTS MPH feet Rate Location/Type
Sun 08:31:28 AM 38.9667 -77.4333 North 152 175 1,500  Level Potomac TRACON
Sun 08:32:22 AM 39.0000 -77.4333 360° North 205 236 3,000 2,233 Climbing Potomac TRACON
Sun 08:34:28 AM 39.1492 -77.4569 353° North 252 290 8,200 2,406 Climbing Washington Center
Sun 08:35:00 AM 39.4282 -77.4500 North  Level FlightAware Approximate
Sun 08:35:29 AM 39.2303 -77.4619 357° North 274 315 10,500  Level Washington Center
Sun 08:36:00 AM 39.5272 -77.4500 North  Level FlightAware Approximate
Sun 08:36:29 AM 39.3197 -77.4694 356° North 299 344 11,700  Level Washington Center
Sun 08:37:29 AM 39.4239 -77.4722 359° North 336 387 13,200 1,660 Climbing Washington Center
Sun 08:39:08 AM 39.6133 -77.4547 North 397 457 16,100 1,731 Climbing New York Center
Sun 08:40:05 AM 39.7303 -77.4522 North 410 472 17,700 1,627 Climbing New York Center
Sun 08:41:06 AM 39.8472 -77.4500 North 416 479 19,300 1,550 Climbing New York Center
Sun 08:42:05 AM 39.9681 -77.4506 360° North 426 490 20,800 1,059 Climbing New York Center
Sun 08:43:05 AM 40.0936 -77.4464 North 431 496 21,400 893 Climbing New York Center
Sun 08:44:06 AM 40.2000 -77.4078 15° North 438 504 22,600 1,230 Climbing New York Center
Sun 08:45:07 AM 40.3097 -77.3092 34° Northeast 438 504 23,900 1,190 Climbing New York Center
Sun 08:46:07 AM 40.4175 -77.2078 36° Northeast 454 522 25,000 559 Climbing New York Center
Sun 08:47:05 AM 40.5292 -77.1061 35° Northeast 474 545 25,000  Level New York Center
Sun 08:48:06 AM 40.6456 -76.9964 36° Northeast 494 568 25,000  Level New York Center
Sun 08:49:07 AM 40.7717 -76.8956 31° Northeast 516 594 25,000  Level New York Center
Sun 08:50:05 AM 40.9067 -76.8225 22° Northeast 522 601 25,000  Level New York Center
Sun 08:51:08 AM 41.0439 -76.7494 22° Northeast 522 601 25,000  Level New York Center
Sun 08:52:05 AM 41.1958 -76.6692 22° Northeast 527 606 25,000  Level New York Center
Sun 08:53:06 AM 41.3350 -76.5928 22° Northeast 532 612 25,000  Level New York Center
Sun 08:54:05 AM 41.4761 -76.5164 22° Northeast 532 612 25,000  Level New York Center
Sun 08:55:06 AM 41.6175 -76.4369 23° Northeast 532 612 25,000 -269 Level New York Center
Sun 08:57:26 AM 41.9358 -76.2611 22° Northeast 552 635 24,100 -300 Descending Boston Center
Sun 08:58:26 AM 42.0717 -76.1883 22° Northeast 535 616 24,000 -50 Descending Boston Center
Sun 08:59:26 AM 42.1861 -76.0661 38° Northeast 518 596 24,000  Level Boston Center
Sun 09:00:26 AM 42.2481 -75.8875 65° Northeast 504 580 24,000  Level Boston Center
Sun 09:01:26 AM 42.3075 -75.7108 65° Northeast 503 579 24,000  Level Boston Center
Sun 09:02:26 AM 42.3686 -75.5314 65° Northeast 503 579 24,000 -650 Level Boston Center
Sun 09:03:26 AM 42.4319 -75.3489 65° Northeast 522 601 22,700 -1,900 Descending Boston Center
Sun 09:04:26 AM 42.4822 -75.1739 69° East 516 594 20,200 -2,550 Descending Boston Center
Sun 09:05:26 AM 42.5153 -75.0006 75° East 488 562 17,600 -2,935 Descending Boston Center
Sun 09:05:58 AM 42.5364 -74.8917 75° East 457 526 15,700 -2,500 Descending Boston Center
Sun 09:06:26 AM 42.5481 -74.8414 73° East 461 531 15,100 -2,045 Descending Boston Center
Sun 09:07:26 AM 42.5514 -74.6808 88° East 420 483 12,700 -1,985 Descending Boston Center
Sun 09:08:36 AM 42.5486 -74.4917 91° East 389 448 10,800 -1,300 Descending Boston Center
Sun 09:09:26 AM 42.5731 -74.4025 70° East 360 414 10,100 -1,364 Descending Boston Center
Sun 09:10:26 AM 42.6022 -74.2819 72° East 313 360 8,300 -1,700 Descending Boston Center
Sun 09:11:26 AM 42.6267 -74.1839 71° East 296 341 6,700 -1,692 Descending Boston Center
Sun 09:11:44 AM 42.6336 -74.1392 78° East 290 334 6,100 -1,700 Descending Boston Center
Sun 09:12:26 AM 42.6408 -74.0686 82° East 283 326 5,000 -1,700 Descending Boston Center
Sun 09:12:44 AM 42.6436 -74.0347 84° East 277 319 4,400 -1,500 Descending Boston Center
Sun 09:13:26 AM 42.6486 -73.9672 84° East 273 314 3,500 -806 Descending Boston Center
Sun 09:13:51 AM 42.6511 -73.9278 85° East 260 299 3,500 -100 Level Boston Center
Sun 09:14:26 AM 42.6558 -73.8800 82° East 256 295 3,400 -716 Descending Boston Center
Sun 09:14:58 AM 42.6586 -73.8319 85° East 213 245 2,700 -600 Descending Boston Center
Sun 09:15:26 AM 42.6611 -73.7953 85° East 245 282 2,800 -1,222 Climbing Boston Center
Sun 09:15:52 AM 42.6922 -73.8044 348° North 171 197 1,600 -2,769 Descending Boston Center

Login

Don't have an account? Register now (free) for customized features, flight alerts, and more!